Time;durP1;ratioP1;P1;durP2;ratioP2;P2;SDS_P1;SDS_P2;PMS_P1;PMS_P2;Temp;Humidity;BMP_temperature;BMP_pressure;BME280_temperature;BME280_humidity;BME280_pressure;Samples;Min_cycle;Max_cycle;Signal;HPM_P1;HPM_P2
2022/10/28 00:04:20;;;;;;;2.50;1.33;;;;;;;19.00;65.88;97366.72;10562609;28;20032;-30
2022/10/28 00:09:21;;;;;;;4.27;1.77;;;;;;;19.01;68.07;97358.28;10567603;28;20678;-29
2022/10/28 00:14:21;;;;;;;1.87;1.10;;;;;;;19.12;68.29;97356.66;10567786;28;20489;-28
2022/10/28 00:19:21;;;;;;;3.33;1.40;;;;;;;19.15;67.61;97361.75;10570760;28;20069;-30
2022/10/28 00:24:22;;;;;;;2.80;1.17;;;;;;;18.96;67.77;97329.47;10565797;28;20036;-30
2022/10/28 00:29:23;;;;;;;2.63;1.70;;;;;;;19.08;67.44;97360.84;10571756;28;20110;-30
2022/10/28 00:34:23;;;;;;;2.38;1.17;;;;;;;19.05;66.37;97352.38;10567683;28;20114;-30
2022/10/28 00:39:25;;;;;;;2.83;1.40;;;;;;;19.02;66.17;97350.66;10569920;28;20604;-29
2022/10/28 00:44:56;;;;;;;1.80;1.05;;;;;;;19.00;66.11;97354.03;10563224;28;20040;-29
2022/10/28 00:50:15;;;;;;;3.17;1.27;;;;;;;18.99;65.76;97350.63;10556062;28;20044;-31
2022/10/28 00:55:17;;;;;;;2.70;1.48;;;;;;;19.00;65.96;97359.13;10559620;28;20118;-28
2022/10/28 01:00:18;;;;;;;2.53;1.60;;;;;;;18.99;65.81;97358.25;10563071;28;20481;-30
2022/10/28 01:05:24;;;;;;;3.55;1.35;;;;;;;18.99;65.87;97354.88;10566229;28;20035;-29
2022/10/28 01:10:38;;;;;;;1.92;1.30;;;;;;;18.98;65.78;97359.09;10558441;28;20043;-29
2022/10/28 01:15:54;;;;;;;3.45;1.50;;;;;;;19.00;67.76;97362.47;10566181;28;20032;-29
2022/10/28 01:21:17;;;;;;;1.63;1.02;;;;;;;19.11;68.07;97367.66;10553755;28;20042;-30
2022/10/28 01:26:56;;;;;;;2.28;1.35;;;;;;;19.16;67.91;97360.94;10554533;28;20688;-29
2022/10/28 01:38:31;;;;;;;3.70;1.52;;;;;;;19.06;67.66;97356.59;10552405;28;20114;-29
2022/10/28 01:43:37;;;;;;;2.75;1.55;;;;;;;19.02;66.08;97355.72;10560707;28;20039;-29
2022/10/28 01:48:47;;;;;;;3.35;1.60;;;;;;;19.00;65.97;97357.41;10556828;28;20111;-30
2022/10/28 01:53:52;;;;;;;1.55;1.25;;;;;;;18.96;65.91;97343.00;10561056;28;20036;-29
2022/10/28 01:58:55;;;;;;;5.57;1.58;;;;;;;18.99;65.80;97348.09;10560683;28;20036;-29
2022/10/28 02:03:56;;;;;;;2.17;1.60;;;;;;;18.98;65.78;97348.06;10564174;28;20458;-29
2022/10/28 02:09:08;;;;;;;2.95;1.45;;;;;;;18.98;65.67;97346.41;10558890;28;20516;-31
2022/10/28 02:14:09;;;;;;;2.22;1.25;;;;;;;18.94;65.71;97341.28;10554448;28;20047;-29
2022/10/28 02:19:59;;;;;;;1.80;1.02;;;;;;;18.97;65.55;97349.78;10561944;28;20050;-29
2022/10/28 02:25:18;;;;;;;2.75;1.48;;;;;;;19.07;68.11;97350.69;10554602;28;20098;-30
2022/10/28 02:30:20;;;;;;;3.00;1.10;;;;;;;19.15;67.85;97341.44;10560454;28;20371;-30
2022/10/28 02:35:50;;;;;;;1.77;1.00;;;;;;;19.12;67.29;97338.88;10558394;28;20031;-29
2022/10/28 02:40:56;;;;;;;2.22;1.05;;;;;;;19.07;67.38;97343.06;10551923;28;20059;-29
2022/10/28 02:45:58;;;;;;;1.63;1.42;;;;;;;19.06;66.56;97343.91;10555803;28;20571;-29
2022/10/28 02:51:12;;;;;;;2.58;1.15;;;;;;;19.01;66.00;97338.81;10561682;28;20857;-30
2022/10/28 02:56:15;;;;;;;1.98;1.02;;;;;;;18.91;65.91;97318.44;10558403;28;20027;-30
2022/10/28 03:01:15;;;;;;;1.65;1.20;;;;;;;18.97;65.77;97326.94;10549113;28;20063;-30
2022/10/28 03:06:16;;;;;;;2.40;1.05;;;;;;;18.97;65.74;97326.09;10557203;28;20024;-30
2022/10/28 03:11:18;;;;;;;1.30;0.80;;;;;;;18.98;65.75;97332.84;10556781;28;20387;-29
2022/10/28 03:16:18;;;;;;;1.27;1.00;;;;;;;18.97;65.66;97326.94;10556469;28;20028;-29
2022/10/28 03:21:18;;;;;;;2.03;1.10;;;;;;;18.97;65.68;97332.03;10564669;28;20385;-30
2022/10/28 03:26:19;;;;;;;1.20;1.10;;;;;;;18.97;65.51;97326.94;10562775;28;20123;-30
2022/10/28 03:31:19;;;;;;;1.80;1.13;;;;;;;19.07;67.96;97330.38;10565898;28;20313;-31
2022/10/28 03:36:19;;;;;;;1.43;0.90;;;;;;;19.09;67.73;97324.50;10564712;28;20054;-29
2022/10/28 03:41:20;;;;;;;1.03;0.90;;;;;;;19.12;66.98;97328.75;10561895;28;20023;-31
2022/10/28 03:46:20;;;;;;;2.43;1.23;;;;;;;19.02;66.92;97309.22;10566804;28;20031;-29
2022/10/28 03:51:20;;;;;;;2.73;1.17;;;;;;;19.06;67.07;97316.00;10556815;28;20469;-29
2022/10/28 03:56:21;;;;;;;1.27;1.13;;;;;;;19.02;66.11;97304.13;10567043;28;20031;-30
2022/10/28 04:01:21;;;;;;;1.50;1.13;;;;;;;19.02;66.26;97306.69;10547729;28;20360;-29
2022/10/28 04:06:22;;;;;;;1.03;0.93;;;;;;;18.99;66.12;97306.66;10547943;28;20040;-29
2022/10/28 04:11:22;;;;;;;2.00;0.85;;;;;;;18.97;65.71;97303.25;10561647;28;20281;-29
2022/10/28 04:16:22;;;;;;;1.40;0.98;;;;;;;18.98;65.53;97307.47;10565626;28;20275;-29
2022/10/28 04:21:23;;;;;;;1.93;0.90;;;;;;;18.96;65.69;97302.41;10564758;28;20038;-31
2022/10/28 04:26:24;;;;;;;1.55;1.05;;;;;;;18.95;65.63;97298.19;10561663;28;20118;-29
2022/10/28 04:31:24;;;;;;;1.48;0.95;;;;;;;18.94;65.43;97298.16;10564858;28;20038;-28
2022/10/28 04:36:24;;;;;;;2.60;1.10;;;;;;;19.05;68.07;97294.00;10556025;28;20548;-29
2022/10/28 04:41:25;;;;;;;5.97;1.53;;;;;;;19.14;68.36;97296.59;10558371;28;20345;-29
2022/10/28 04:46:25;;;;;;;6.53;1.92;;;;;;;19.18;68.26;97301.69;10562504;28;20031;-31
2022/10/28 04:51:25;;;;;;;10.43;1.67;;;;;;;19.06;62.99;97303.31;10558321;28;20589;-29
2022/10/28 04:56:26;;;;;;;1.97;1.40;;;;;;;19.06;64.84;97300.78;10562349;28;20027;-30
2022/10/28 05:01:26;;;;;;;1.35;1.10;;;;;;;19.02;65.42;97299.06;10561138;28;20114;-29
2022/10/28 05:06:27;;;;;;;1.73;1.15;;;;;;;19.00;65.58;97295.69;10564361;28;20027;-29
2022/10/28 05:11:27;;;;;;;2.37;1.20;;;;;;;18.96;65.46;97299.88;10569029;28;20474;-30
2022/10/28 05:16:28;;;;;;;3.17;1.40;;;;;;;18.94;65.23;97296.50;10558690;28;20035;-30
2022/10/28 05:21:28;;;;;;;1.98;1.20;;;;;;;18.93;65.36;97288.84;10558556;28;20031;-29
2022/10/28 05:26:28;;;;;;;2.97;1.10;;;;;;;18.93;65.00;97293.94;10563058;28;20031;-29
2022/10/28 05:31:29;;;;;;;1.27;0.83;;;;;;;18.94;65.20;97280.41;10558885;28;20278;-29
2022/10/28 05:36:29;;;;;;;1.40;1.00;;;;;;;18.92;65.41;97282.09;10562434;28;20035;-29
2022/10/28 05:41:29;;;;;;;5.30;1.20;;;;;;;18.99;64.94;97281.28;10557028;28;20042;-29
2022/10/28 05:46:30;;;;;;;5.13;2.03;;;;;;;19.09;64.01;97275.44;10554064;28;20093;-30
2022/10/28 05:51:30;;;;;;;4.20;1.83;;;;;;;19.10;62.95;97277.13;10554014;28;20386;-30
2022/10/28 05:56:30;;;;;;;3.67;1.10;;;;;;;19.06;65.25;97275.38;10559791;28;20335;-29
2022/10/28 06:01:31;;;;;;;5.30;1.20;;;;;;;19.02;64.65;97273.69;10565325;28;20036;-29
2022/10/28 06:06:31;;;;;;;3.73;1.10;;;;;;;18.98;64.54;97270.28;10561506;28;20031;-29
2022/10/28 06:11:33;;;;;;;4.93;1.00;;;;;;;18.93;63.12;97273.63;10560565;28;20038;-29
2022/10/28 06:16:34;;;;;;;5.25;1.60;;;;;;;18.96;64.65;97273.63;10564190;28;20413;-29
2022/10/28 06:21:34;;;;;;;2.53;1.40;;;;;;;18.99;64.98;97283.81;10558261;28;20042;-30
2022/10/28 06:26:34;;;;;;;3.00;0.93;;;;;;;18.96;64.49;97283.78;10556995;28;20035;-29
2022/10/28 06:31:38;;;;;;;3.70;0.90;;;;;;;18.91;63.72;97275.31;10556345;28;20118;-30
2022/10/28 06:36:39;;;;;;;2.78;1.00;;;;;;;18.90;63.77;97291.34;10551990;28;20277;-29
2022/10/28 06:41:39;;;;;;;2.83;0.88;;;;;;;18.88;63.87;97295.56;10564524;28;20103;-28
2022/10/28 06:46:39;;;;;;;3.63;1.90;;;;;;;18.90;61.63;97289.66;10554906;28;20039;-30
2022/10/28 06:51:40;;;;;;;6.77;1.60;;;;;;;19.02;60.85;97304.13;10552342;28;20032;-29
2022/10/28 06:56:40;;;;;;;6.17;1.87;;;;;;;19.01;60.61;97307.53;10559189;28;20274;-30
2022/10/28 07:01:40;;;;;;;10.20;1.57;;;;;;;18.97;60.65;97309.19;10560633;28;20289;-30
2022/10/28 07:06:41;;;;;;;7.77;1.60;;;;;;;18.98;60.02;97317.63;10561909;28;20750;-30
2022/10/28 07:11:44;;;;;;;4.10;1.50;;;;;;;18.94;59.58;97326.06;10558939;28;20077;-29
2022/10/28 07:16:44;;;;;;;4.50;1.75;;;;;;;18.91;60.26;97328.59;10554991;28;20034;-29
2022/10/28 07:21:46;;;;;;;3.80;1.20;;;;;;;18.89;62.82;97333.66;10541458;28;20402;-31
2022/10/28 07:26:48;;;;;;;3.97;1.27;;;;;;;18.85;62.48;97333.59;10541833;28;20066;-30
2022/10/28 07:31:48;;;;;;;3.90;0.98;;;;;;;18.86;62.86;97333.63;10550283;28;20027;-29
2022/10/28 07:36:53;;;;;;;3.08;1.15;;;;;;;18.87;62.56;97342.06;10544446;28;20067;-30
2022/10/28 07:41:54;;;;;;;7.78;1.88;;;;;;;18.84;62.75;97340.34;10560284;28;20485;-30
2022/10/28 07:46:54;;;;;;;4.50;1.93;;;;;;;18.93;61.64;97345.50;10552245;28;20036;-29
2022/10/28 07:51:54;;;;;;;5.63;1.80;;;;;;;19.03;63.68;97348.97;10554765;28;20035;-31
2022/10/28 07:56:55;;;;;;;10.93;3.80;;;;;;;19.06;64.01;97349.00;10558772;28;20057;-29
2022/10/28 08:01:55;;;;;;;11.40;2.07;;;;;;;19.01;63.92;97348.13;10546333;28;20036;-29
2022/10/28 08:06:56;;;;;;;20.33;3.27;;;;;;;19.01;64.34;97346.41;10560326;28;20036;-30
2022/10/28 08:11:56;;;;;;;10.83;2.90;;;;;;;19.00;64.52;97352.34;10557092;27;20280;-29
2022/10/28 08:16:56;;;;;;;10.33;2.47;;;;;;;19.00;64.29;97362.47;10545493;28;20077;-29
2022/10/28 08:21:57;;;;;;;4.30;2.03;;;;;;;18.98;64.12;97353.16;10564429;28;20362;-30
2022/10/28 08:26:57;;;;;;;9.30;2.00;;;;;;;18.97;64.08;97354.84;10553788;28;20032;-29
2022/10/28 08:31:58;;;;;;;8.85;2.40;;;;;;;18.94;64.55;97348.91;10552652;27;20476;-31
2022/10/28 08:36:58;;;;;;;4.90;1.90;;;;;;;18.94;64.38;97352.31;10561778;27;20054;-29
2022/10/28 08:42:36;;;;;;;4.07;1.60;;;;;;;18.94;64.28;97351.44;10560012;28;20391;-29
2022/10/28 08:47:55;;;;;;;7.85;2.15;;;;;;;18.94;64.35;97357.38;10559119;27;20152;-29
2022/10/28 08:53:05;;;;;;;7.95;1.98;;;;;;;19.00;64.74;97351.50;10552591;27;20486;-29
2022/10/28 08:58:21;;;;;;;6.43;2.50;;;;;;;19.05;64.30;97354.91;10574007;28;20497;-29
2022/10/28 09:03:24;;;;;;;8.90;2.30;;;;;;;19.07;64.19;97355.75;10564213;28;20104;-29
2022/10/28 09:08:27;;;;;;;8.52;2.03;;;;;;;19.00;64.29;97362.47;10558439;28;20035;-29
2022/10/28 09:13:46;;;;;;;9.30;2.38;;;;;;;18.95;64.50;97361.63;10565522;28;20123;-30
2022/10/28 09:18:53;;;;;;;5.75;2.50;;;;;;;18.92;64.52;97353.97;10562725;28;20032;-29
2022/10/28 09:23:56;;;;;;;5.40;2.15;;;;;;;18.89;64.52;97345.47;10556320;28;20111;-31
2022/10/28 09:29:12;;;;;;;5.93;1.77;;;;;;;18.91;64.44;97352.25;10562284;28;20085;-31
2022/10/28 09:34:36;;;;;;;9.75;3.78;;;;;;;18.93;64.36;97354.81;10559021;28;20074;-29
2022/10/28 09:39:48;;;;;;;7.80;4.68;;;;;;;18.93;64.50;97362.44;10563377;28;20032;-29
2022/10/28 09:44:53;;;;;;;5.05;2.70;;;;;;;18.94;64.59;97356.53;10562794;28;20493;-29
2022/10/28 09:49:59;;;;;;;8.98;2.90;;;;;;;18.94;64.50;97359.06;10560027;28;20039;-29
2022/10/28 09:55:07;;;;;;;9.32;2.63;;;;;;;18.94;64.35;97362.47;10569869;28;20509;-30
2022/10/28 10:00:11;;;;;;;9.35;2.15;;;;;;;19.02;64.99;97357.44;10563576;28;20040;-30
2022/10/28 10:05:16;;;;;;;7.28;2.45;;;;;;;19.07;65.18;97354.09;10559772;28;20026;-28
2022/10/28 10:10:26;;;;;;;5.25;2.35;;;;;;;19.08;65.02;97353.25;10566451;28;20028;-30
2022/10/28 10:15:32;;;;;;;5.47;2.22;;;;;;;19.03;64.68;97354.06;10557902;28;20020;-28
2022/10/28 10:20:50;;;;;;;6.07;2.40;;;;;;;19.02;64.53;97349.81;10557854;28;20043;-30
2022/10/28 10:26:03;;;;;;;7.15;2.33;;;;;;;18.98;64.38;97343.00;10558766;28;20031;-29
2022/10/28 10:31:06;;;;;;;6.25;2.38;;;;;;;18.99;64.57;97334.59;10556241;28;20361;-30
2022/10/28 10:36:06;;;;;;;10.38;3.58;;;;;;;18.98;64.58;97317.63;10556592;28;20034;-29
2022/10/28 10:41:06;;;;;;;6.30;1.83;;;;;;;18.94;64.43;97315.91;10559443;28;20035;-30
2022/10/28 10:46:15;;;;;;;4.80;2.70;;;;;;;18.99;65.22;97324.44;10558798;28;20042;-30
2022/10/28 10:51:23;;;;;;;6.72;2.85;;;;;;;18.94;65.36;97313.38;10558348;28;20049;-31
2022/10/28 10:56:27;;;;;;;5.18;2.03;;;;;;;19.02;65.15;97319.38;10559737;28;20374;-29
2022/10/28 11:01:33;;;;;;;7.10;1.90;;;;;;;18.93;65.63;97316.75;10559421;28;20036;-30
2022/10/28 11:06:40;;;;;;;6.10;1.63;;;;;;;19.06;66.46;97316.00;10558895;28;20054;-30
2022/10/28 11:11:41;;;;;;;9.88;2.22;;;;;;;19.13;66.39;97312.66;10553172;28;20029;-28
2022/10/28 11:16:56;;;;;;;7.45;2.17;;;;;;;19.15;66.34;97313.53;10559809;28;20518;-30
2022/10/28 11:22:15;;;;;;;6.97;2.13;;;;;;;19.11;65.65;97305.06;10550951;28;20067;-30
2022/10/28 11:27:22;;;;;;;4.25;1.85;;;;;;;19.09;66.47;97298.28;10559190;28;20035;-29
2022/10/28 11:32:52;;;;;;;8.02;2.95;;;;;;;19.04;66.76;97293.16;10557629;28;20040;-29
2022/10/28 11:38:08;;;;;;;8.20;1.98;;;;;;;19.07;65.66;97297.38;10549551;28;20028;-29
2022/10/28 11:43:22;;;;;;;11.13;2.35;;;;;;;19.06;66.90;97295.69;10564195;28;20044;-30
2022/10/28 11:48:40;;;;;;;10.90;2.65;;;;;;;18.95;67.41;97271.94;10570549;28;20080;-29
2022/10/28 11:54:01;;;;;;;21.10;3.92;;;;;;;18.99;66.02;97293.97;10562923;28;20028;-29
2022/10/28 11:59:15;;;;;;;8.82;2.78;;;;;;;19.05;67.61;97288.94;10560040;28;20112;-29
2022/10/28 12:04:24;;;;;;;13.20;3.10;;;;;;;19.06;67.29;97288.09;10555518;28;20178;-29
2022/10/28 12:09:43;;;;;;;24.55;3.92;;;;;;;19.07;67.57;97287.22;10565131;28;20031;-31
2022/10/28 12:14:52;;;;;;;18.25;3.83;;;;;;;19.02;68.13;97266.06;10543062;28;20543;-29
2022/10/28 12:20:01;;;;;;;14.45;3.00;;;;;;;19.21;68.59;97290.75;10558889;28;20028;-30
2022/10/28 12:25:12;;;;;;;12.23;3.05;;;;;;;19.16;66.50;97292.41;10562666;28;20464;-31
2022/10/28 12:30:32;;;;;;;13.75;3.30;;;;;;;19.07;65.61;97298.25;10565982;28;20034;-30
2022/10/28 12:35:40;;;;;;;5.97;2.10;;;;;;;19.09;65.80;97285.59;10553584;28;20486;-30
2022/10/28 12:40:48;;;;;;;13.10;2.90;;;;;;;19.10;65.26;97275.41;10567389;28;20039;-31
2022/10/28 12:45:51;;;;;;;5.32;1.90;;;;;;;19.11;64.97;97273.75;10561856;28;20588;-31
2022/10/28 12:50:59;;;;;;;8.65;2.45;;;;;;;19.10;64.79;97272.06;10560366;28;20034;-30
2022/10/28 12:56:01;;;;;;;8.88;3.05;;;;;;;19.06;64.91;97262.69;10565997;28;20035;-31
2022/10/28 13:01:14;;;;;;;5.05;1.98;;;;;;;19.03;64.96;97261.03;10557096;28;20043;-30
2022/10/28 13:06:48;;;;;;;9.85;3.75;;;;;;;19.06;64.80;97257.63;10563723;28;20035;-31
2022/10/28 13:12:16;;;;;;;9.13;3.45;;;;;;;19.05;65.76;97266.09;10557774;28;20115;-30
2022/10/28 13:17:34;;;;;;;7.72;2.50;;;;;;;19.02;65.89;97278.75;10564578;28;20031;-31
2022/10/28 13:22:59;;;;;;;10.00;2.83;;;;;;;19.15;66.57;97285.59;10568054;28;20043;-31
2022/10/28 13:28:01;;;;;;;9.50;3.30;;;;;;;19.19;66.82;97287.38;10553831;28;20051;-30
2022/10/28 13:33:07;;;;;;;4.65;2.17;;;;;;;19.11;65.93;97302.53;10562267;28;20247;-30
2022/10/28 13:38:11;;;;;;;4.93;2.35;;;;;;;19.12;66.01;97280.50;10545461;28;20036;-31
2022/10/28 13:43:20;;;;;;;4.43;2.15;;;;;;;19.17;65.93;97283.94;10561022;28;20047;-29
2022/10/28 13:48:43;;;;;;;11.10;1.95;;;;;;;19.24;66.26;97285.72;10558111;28;20027;-31
2022/10/28 13:53:43;;;;;;;5.18;2.10;;;;;;;19.30;66.23;97281.53;10556346;28;20043;-30
2022/10/28 13:58:56;;;;;;;7.23;3.47;;;;;;;19.34;65.67;97285.75;10560216;28;20115;-29
2022/10/28 14:03:57;;;;;;;4.38;2.20;;;;;;;19.45;65.42;97283.28;10562406;28;20040;-30
2022/10/28 14:08:58;;;;;;;15.83;3.00;;;;;;;19.45;66.06;97280.75;10551380;28;20063;-30
2022/10/28 14:14:01;;;;;;;7.47;2.30;;;;;;;19.47;66.02;97285.00;10563307;28;20273;-30
2022/10/28 14:19:08;;;;;;;9.63;3.15;;;;;;;19.46;65.89;97277.34;10560694;28;20081;-29
2022/10/28 14:24:08;;;;;;;;;;;;;;;19.48;66.12;97286.69;10556922;28;20043;-30
2022/10/28 14:29:22;;;;;;;9.10;2.13;;;;;;;19.49;66.27;97267.22;10557891;28;20002;-31
2022/10/28 14:34:32;;;;;;;5.10;2.08;;;;;;;19.55;66.11;97273.19;10561710;28;20036;-30
2022/10/28 14:39:51;;;;;;;7.88;2.22;;;;;;;19.49;65.70;97287.56;10559657;28;20091;-30
2022/10/28 14:45:27;;;;;;;13.98;3.15;;;;;;;19.45;66.51;97295.97;10548150;28;20560;-30
2022/10/28 14:50:39;;;;;;;10.88;2.58;;;;;;;19.47;66.17;97300.22;10557722;28;20118;-30
2022/10/28 14:55:46;;;;;;;6.65;2.17;;;;;;;19.36;66.00;97303.53;10551572;28;20446;-30
2022/10/28 15:00:55;;;;;;;7.05;2.00;;;;;;;19.29;65.92;97294.19;10551577;28;20070;-30
2022/10/28 15:06:23;;;;;;;10.45;2.45;;;;;;;19.37;66.45;97307.78;10542171;28;20413;-31
2022/10/28 15:11:23;;;;;;;7.05;2.20;;;;;;;19.46;65.56;97308.69;10544815;28;20293;-30
2022/10/28 15:16:24;;;;;;;9.95;2.15;;;;;;;19.51;65.34;97307.00;10557173;28;20038;-30
2022/10/28 15:21:24;;;;;;;6.15;2.20;;;;;;;19.61;65.34;97313.00;10561928;28;20068;-30
2022/10/28 15:26:25;;;;;;;10.10;2.67;;;;;;;19.62;65.65;97319.78;10556021;28;20366;-30
2022/10/28 15:31:25;;;;;;;6.88;2.72;;;;;;;19.63;66.40;97322.34;10565060;28;20028;-30
2022/10/28 15:36:26;;;;;;;9.03;2.60;;;;;;;19.58;65.76;97323.16;10560666;28;20378;-33
2022/10/28 15:41:29;;;;;;;3.30;1.63;;;;;;;19.53;65.74;97320.59;10566569;28;20292;-31
2022/10/28 15:46:32;;;;;;;5.93;2.00;;;;;;;19.47;65.81;97322.22;10563441;28;20043;-30
2022/10/28 15:51:32;;;;;;;8.02;1.98;;;;;;;19.44;65.83;97325.59;10563174;28;20054;-31
2022/10/28 15:56:55;;;;;;;7.63;2.43;;;;;;;19.40;66.00;97334.03;10564367;28;20353;-30
2022/10/28 16:01:57;;;;;;;3.95;1.80;;;;;;;19.37;66.08;97325.56;10563873;28;20377;-30
2022/10/28 16:07:06;;;;;;;7.05;2.20;;;;;;;19.38;66.21;97335.72;10569199;28;20553;-30
2022/10/28 16:12:16;;;;;;;6.28;2.30;;;;;;;19.48;66.93;97334.06;10569206;28;20034;-30
2022/10/28 16:17:23;;;;;;;7.03;2.30;;;;;;;19.44;65.61;97350.16;10568363;28;20404;-31
2022/10/28 16:22:26;;;;;;;5.70;2.00;;;;;;;19.35;65.87;97345.03;10562060;28;20512;-30
2022/10/28 16:27:30;;;;;;;8.23;2.45;;;;;;;19.31;66.18;97338.22;10567052;28;20566;-31
2022/10/28 16:32:38;;;;;;;5.88;1.58;;;;;;;19.27;66.23;97333.97;10561349;28;20034;-32
2022/10/28 16:37:40;;;;;;;4.47;2.08;;;;;;;19.26;66.09;97355.94;10562320;28;20019;-30
2022/10/28 16:42:41;;;;;;;8.13;1.67;;;;;;;19.29;66.51;97365.28;10553556;28;20038;-30
2022/10/28 16:47:42;;;;;;;13.30;3.45;;;;;;;19.36;66.52;97365.34;10560023;28;20050;-30
2022/10/28 16:52:42;;;;;;;36.03;7.53;;;;;;;19.53;67.11;97365.44;10566609;28;20054;-31
2022/10/28 16:57:43;;;;;;;30.23;4.17;;;;;;;19.49;66.05;97359.50;10557445;28;20417;-31
2022/10/28 17:02:43;;;;;;;16.83;3.37;;;;;;;19.39;65.61;97367.03;10559633;28;20439;-30
2022/10/28 17:07:43;;;;;;;23.33;4.15;;;;;;;19.39;66.17;97377.19;10560172;28;20213;-31
2022/10/28 17:12:44;;;;;;;15.07;3.65;;;;;;;19.56;65.80;97375.63;10560246;28;20075;-32
2022/10/28 17:17:48;;;;;;;14.27;2.57;;;;;;;19.56;65.34;97378.16;10556960;28;20400;-30
2022/10/28 17:22:48;;;;;;;11.55;2.30;;;;;;;19.53;65.03;97386.63;10559508;28;20500;-31
2022/10/28 17:27:51;;;;;;;12.67;2.83;;;;;;;19.51;65.34;97388.28;10562034;28;20042;-30
2022/10/28 17:32:52;;;;;;;19.67;4.15;;;;;;;19.59;66.39;97391.72;10560379;28;20111;-30
2022/10/28 17:37:53;;;;;;;23.98;4.50;;;;;;;19.59;66.83;97380.72;10559226;28;20032;-31
2022/10/28 17:42:56;;;;;;;14.70;2.77;;;;;;;19.55;65.37;97390.03;10558325;28;20118;-31
2022/10/28 17:47:58;;;;;;;15.80;3.00;;;;;;;19.48;65.21;97384.88;10558351;28;20040;-30
2022/10/28 17:52:58;;;;;;;9.95;2.53;;;;;;;19.45;65.38;97382.31;10555125;28;20558;-31
2022/10/28 17:57:59;;;;;;;12.60;2.57;;;;;;;19.42;65.23;97383.16;10562123;28;20093;-32
2022/10/28 18:02:59;;;;;;;9.90;2.30;;;;;;;19.39;65.29;97397.50;10558041;28;20036;-30
2022/10/28 18:07:59;;;;;;;12.10;3.60;;;;;;;19.44;67.66;97393.31;10562384;28;20046;-31
2022/10/28 18:13:00;;;;;;;17.50;3.60;;;;;;;19.56;68.03;97399.34;10561849;28;20064;-31
2022/10/28 18:18:00;;;;;;;8.30;2.30;;;;;;;19.51;65.45;97397.63;10569394;28;20035;-29
2022/10/28 18:23:00;;;;;;;6.57;2.03;;;;;;;19.38;64.98;97400.88;10553008;28;20035;-31
2022/10/28 18:28:03;;;;;;;8.80;2.00;;;;;;;19.36;65.02;97410.19;10570595;28;20062;-29
2022/10/28 18:33:03;;;;;;;7.72;2.20;;;;;;;19.33;65.08;97407.66;10568026;28;20397;-30
2022/10/28 18:38:04;;;;;;;4.73;1.97;;;;;;;19.33;65.11;97412.72;10555671;28;20035;-30
2022/10/28 18:43:04;;;;;;;10.93;2.53;;;;;;;19.32;65.11;97423.69;10560379;28;20027;-30
2022/10/28 18:48:05;;;;;;;10.70;1.57;;;;;;;19.29;65.17;97419.47;10565020;28;20046;-31
2022/10/28 18:53:05;;;;;;;18.48;3.78;;;;;;;19.48;68.00;97418.75;10547405;28;20115;-30
2022/10/28 18:58:06;;;;;;;13.37;3.67;;;;;;;19.44;66.62;97396.69;10542852;28;20035;-31
2022/10/28 19:03:16;;;;;;;8.52;2.15;;;;;;;19.40;65.09;97412.75;10542934;28;20057;-30
2022/10/28 19:08:16;;;;;;;8.77;2.35;;;;;;;19.43;66.09;97428.00;10561713;28;20128;-30
2022/10/28 19:13:17;;;;;;;9.60;1.90;;;;;;;19.31;65.23;97429.59;10566453;28;20608;-30
2022/10/28 19:18:17;;;;;;;7.07;2.00;;;;;;;19.16;64.95;97404.09;10561074;28;20054;-29
2022/10/28 19:23:18;;;;;;;15.07;3.22;;;;;;;19.29;66.44;97419.47;10557999;28;20397;-30
2022/10/28 19:28:18;;;;;;;8.67;2.20;;;;;;;19.28;67.00;97424.53;10564154;28;20024;-30
2022/10/28 19:33:18;;;;;;;7.33;1.80;;;;;;;19.30;66.30;97417.75;10555034;28;20786;-31
2022/10/28 19:38:19;;;;;;;13.27;3.63;;;;;;;19.42;68.13;97428.03;10556888;28;20362;-32
2022/10/28 19:43:19;;;;;;;27.40;3.83;;;;;;;19.44;67.91;97429.72;10561753;28;20293;-31
2022/10/28 19:48:20;;;;;;;19.50;2.97;;;;;;;19.42;66.61;97428.03;10558525;28;20293;-30
2022/10/28 19:53:20;;;;;;;15.70;3.57;;;;;;;19.38;65.69;97421.19;10556181;28;20409;-30
2022/10/28 19:58:20;;;;;;;10.00;2.00;;;;;;;19.33;65.59;97420.34;10557221;28;20297;-31
2022/10/28 20:03:21;;;;;;;7.38;2.63;;;;;;;19.29;65.32;97410.97;10570672;28;20031;-30
2022/10/28 20:08:21;;;;;;;14.60;2.53;;;;;;;19.24;65.35;97389.81;10571177;28;20477;-30
2022/10/28 20:13:22;;;;;;;12.07;3.73;;;;;;;19.30;65.80;97397.44;10571941;28;20035;-31
2022/10/28 20:18:22;;;;;;;11.43;2.73;;;;;;;19.29;65.08;97400.81;10574970;28;20316;-31
2022/10/28 20:23:22;;;;;;;10.53;2.40;;;;;;;19.42;62.79;97402.63;10570552;28;20032;-30
2022/10/28 20:28:23;;;;;;;18.40;3.97;;;;;;;19.47;66.32;97403.50;10566412;28;20300;-30
2022/10/28 20:33:24;;;;;;;16.10;3.83;;;;;;;19.47;67.29;97406.03;10557563;28;20020;-31
2022/10/28 20:38:25;;;;;;;14.48;2.60;;;;;;;19.38;65.46;97409.38;10559825;28;20191;-30
2022/10/28 20:43:28;;;;;;;17.55;2.33;;;;;;;19.34;65.19;97411.88;10548616;28;20168;-30
2022/10/28 20:48:29;;;;;;;10.43;2.45;;;;;;;19.29;65.11;97421.13;10563725;28;20513;-31
2022/10/28 20:53:33;;;;;;;9.68;2.42;;;;;;;19.31;65.29;97424.53;10561720;28;20072;-30
2022/10/28 20:58:34;;;;;;;5.55;2.10;;;;;;;19.29;65.19;97422.00;10563537;28;20444;-30
2022/10/28 21:03:34;;;;;;;12.50;2.70;;;;;;;19.35;67.67;97427.09;10556964;28;20147;-32
2022/10/28 21:08:35;;;;;;;10.70;3.40;;;;;;;19.46;68.20;97429.72;10561439;28;20148;-31
2022/10/28 21:13:37;;;;;;;8.75;3.10;;;;;;;19.45;67.55;97428.03;10548523;28;20028;-31
2022/10/28 21:18:38;;;;;;;10.68;2.35;;;;;;;19.39;65.88;97425.44;10560515;28;20085;-31
2022/10/28 21:23:39;;;;;;;7.85;2.03;;;;;;;19.30;66.35;97430.44;10563314;28;20621;-30
2022/10/28 21:28:40;;;;;;;8.33;2.03;;;;;;;19.24;65.81;97412.66;10556871;28;20039;-30
2022/10/28 21:33:41;;;;;;;7.68;2.15;;;;;;;19.29;65.56;97426.22;10564075;28;20351;-31
2022/10/28 21:38:42;;;;;;;4.50;1.75;;;;;;;19.29;65.37;97426.22;10560771;28;20401;-31
2022/10/28 21:43:46;;;;;;;7.82;1.90;;;;;;;19.26;65.04;97432.13;10565563;28;20055;-30
2022/10/28 21:48:47;;;;;;;10.73;4.25;;;;;;;19.36;68.39;97427.97;10554034;28;20031;-31
2022/10/28 21:53:47;;;;;;;6.47;1.98;;;;;;;19.42;68.41;97433.09;10552619;28;20023;-31
2022/10/28 21:58:49;;;;;;;6.73;2.20;;;;;;;19.43;66.74;97438.16;10564446;28;20500;-30
2022/10/28 22:03:51;;;;;;;7.95;2.35;;;;;;;19.35;65.82;97432.19;10560586;28;20040;-30
2022/10/28 22:08:53;;;;;;;7.03;2.13;;;;;;;19.30;65.57;97440.59;10562021;28;20038;-30
2022/10/28 22:13:57;;;;;;;6.72;1.75;;;;;;;19.28;65.37;97439.75;10549917;28;20521;-30
2022/10/28 22:18:59;;;;;;;3.60;1.25;;;;;;;19.25;65.49;97427.03;10556866;28;20059;-31
2022/10/28 22:23:59;;;;;;;5.40;1.55;;;;;;;19.24;65.22;97432.97;10555314;28;20043;-30
2022/10/28 22:29:00;;;;;;;2.88;1.17;;;;;;;19.25;65.41;97434.66;10563224;28;20035;-31
2022/10/28 22:34:01;;;;;;;6.45;2.67;;;;;;;19.38;68.37;97438.97;10558388;28;20023;-31
2022/10/28 22:39:01;;;;;;;15.23;2.97;;;;;;;19.44;68.48;97441.56;10556116;28;20039;-30
2022/10/28 22:44:03;;;;;;;7.57;2.20;;;;;;;19.45;66.86;97438.19;10556666;28;20043;-31
2022/10/28 22:49:03;;;;;;;3.03;1.23;;;;;;;19.37;66.16;97437.28;10556219;28;20433;-30
2022/10/28 22:54:04;;;;;;;5.50;1.93;;;;;;;19.30;65.75;97427.91;10556304;28;20024;-32
2022/10/28 22:59:04;;;;;;;3.50;1.20;;;;;;;19.27;65.52;97425.34;10559584;28;20295;-30
2022/10/28 23:04:09;;;;;;;5.43;1.60;;;;;;;19.25;65.34;97424.50;10554007;28;20043;-32
2022/10/28 23:09:09;;;;;;;7.82;1.85;;;;;;;19.25;65.39;97434.66;10555659;28;20035;-29
2022/10/28 23:14:09;;;;;;;3.37;1.23;;;;;;;19.23;65.41;97416.00;10554337;28;20027;-31
2022/10/28 23:19:10;;;;;;;9.13;2.83;;;;;;;19.31;67.96;97424.53;10561445;28;20031;-31
2022/10/28 23:24:10;;;;;;;10.23;2.70;;;;;;;19.41;68.55;97418.72;10553920;28;20031;-30
2022/10/28 23:29:12;;;;;;;8.57;2.23;;;;;;;19.43;67.79;97414.47;10551895;28;20031;-30
2022/10/28 23:34:13;;;;;;;3.55;1.48;;;;;;;19.38;66.67;97414.44;10557118;28;20701;-31
2022/10/28 23:39:13;;;;;;;7.80;2.53;;;;;;;19.31;65.74;97411.84;10562585;28;20076;-31
2022/10/28 23:44:14;;;;;;;6.53;1.47;;;;;;;19.26;65.50;97406.72;10560989;28;20035;-30